createdAt,value
2022-11-24T00:04:32.903Z,101734.31
2022-11-24T00:09:35.102Z,101733.44
2022-11-24T00:14:38.588Z,101731.75
2022-11-24T00:19:40.573Z,101731.75
2022-11-24T00:24:42.568Z,101743.13
2022-11-24T00:29:44.581Z,101738.03
2022-11-24T00:34:47.481Z,101733.56
2022-11-24T00:39:49.500Z,101729.09
2022-11-24T00:44:51.542Z,101734.31
2022-11-24T00:49:53.721Z,101728.97
2022-11-24T00:54:55.781Z,101726.56
2022-11-24T00:59:57.780Z,101723.91
2022-11-24T01:04:59.808Z,101721.00
2022-11-24T01:10:02.113Z,101706.75
2022-11-24T01:15:04.524Z,101716.53
2022-11-24T01:20:07.174Z,101736.22
2022-11-24T01:25:11.100Z,101744.09
2022-11-24T01:30:13.125Z,101761.00
2022-11-24T01:35:15.245Z,101757.28
2022-11-24T01:40:17.311Z,101763.56
2022-11-24T01:45:36.059Z,101764.63
2022-11-24T01:50:38.115Z,101775.16
2022-11-24T01:55:41.577Z,101771.66
2022-11-24T02:00:45.655Z,101798.16
2022-11-24T02:06:04.859Z,101801.88
2022-11-24T02:11:06.991Z,101804.53
2022-11-24T02:16:12.404Z,101817.75
2022-11-24T02:21:16.619Z,101825.72
2022-11-24T02:26:36.639Z,101828.47
2022-11-24T02:31:42.516Z,101825.81
2022-11-24T02:36:44.973Z,101814.34
2022-11-24T02:41:52.412Z,101817.84
2022-11-24T02:47:08.901Z,101824.16
2022-11-24T02:52:11.013Z,101833.81
2022-11-24T02:57:13.100Z,101826.81
2022-11-24T03:02:15.264Z,101836.59
2022-11-24T03:07:18.323Z,101836.59
2022-11-24T03:12:20.480Z,101831.28
2022-11-24T03:17:22.463Z,101833.81
2022-11-24T03:22:24.414Z,101844.56
2022-11-24T03:27:26.444Z,101854.38
2022-11-24T03:32:28.466Z,101855.50
2022-11-24T03:37:30.978Z,101869.38
2022-11-24T03:42:33.011Z,101885.22
2022-11-24T03:47:35.189Z,101869.38
2022-11-24T03:52:37.125Z,101872.03
2022-11-24T03:57:39.081Z,101879.03
2022-11-24T04:02:41.104Z,101879.88
2022-11-24T04:07:43.220Z,101878.22
2022-11-24T04:12:45.270Z,101888.00
2022-11-24T04:17:50.058Z,101887.16
2022-11-24T04:22:52.278Z,101896.84
2022-11-24T04:27:55.588Z,101899.50
2022-11-24T04:32:57.692Z,101895.97
2022-11-24T04:38:03.001Z,101898.75
2022-11-24T04:43:05.005Z,101891.59
2022-11-24T04:48:07.119Z,101898.63
2022-11-24T04:53:10.452Z,101899.06
2022-11-24T04:58:12.694Z,101903.97
2022-11-24T05:03:14.792Z,101904.06
2022-11-24T05:08:16.755Z,101907.56
2022-11-24T05:13:18.995Z,101921.72
2022-11-24T05:18:21.038Z,101925.25
2022-11-24T05:23:23.293Z,101927.91
2022-11-24T05:28:25.294Z,101936.84
2022-11-24T05:33:28.873Z,101936.84
2022-11-24T05:38:31.427Z,101950.88
2022-11-24T05:43:33.773Z,101960.56
2022-11-24T05:48:35.792Z,101967.81
2022-11-24T05:53:37.811Z,101959.06
2022-11-24T05:58:39.917Z,101982.94
2022-11-24T06:03:41.990Z,101989.97
2022-11-24T06:08:44.008Z,101987.31
2022-11-24T06:13:48.808Z,101994.44
2022-11-24T06:18:51.112Z,101998.03
2022-11-24T06:23:53.205Z,102000.69
2022-11-24T06:28:55.367Z,102018.38
2022-11-24T06:33:57.474Z,102025.38
2022-11-24T06:39:02.588Z,102031.78
2022-11-24T06:44:05.334Z,102022.06
2022-11-24T06:49:07.732Z,102028.25
2022-11-24T06:54:13.226Z,102027.31
2022-11-24T06:59:20.888Z,102024.66
2022-11-24T07:04:23.084Z,102035.28
2022-11-24T07:09:25.123Z,102043.44
2022-11-24T07:14:27.195Z,102046.03
2022-11-24T07:19:29.329Z,102045.06
2022-11-24T07:24:31.565Z,102045.94
2022-11-24T07:29:33.800Z,102046.88
2022-11-24T07:34:36.099Z,102057.59
2022-11-24T07:39:38.429Z,102056.66
2022-11-24T07:44:40.937Z,102081.47
2022-11-24T07:49:43.072Z,102081.47
2022-11-24T07:54:45.112Z,102089.44
2022-11-24T07:59:47.264Z,102088.59
2022-11-24T08:04:49.331Z,102099.22
2022-11-24T08:09:52.391Z,102111.59
2022-11-24T08:14:54.490Z,102099.53
2022-11-24T08:19:56.819Z,102113.31
2022-11-24T08:24:58.940Z,102124.03
2022-11-24T08:30:01.011Z,102121.47
2022-11-24T08:35:14.508Z,102118.81
2022-11-24T08:40:17.465Z,102111.78
2022-11-24T08:45:21.492Z,102122.31
2022-11-24T08:50:25.731Z,102114.34
2022-11-24T08:55:27.728Z,102102.75
2022-11-24T09:00:29.830Z,102121.47
2022-11-24T09:10:54.915Z,102124.97
2022-11-24T09:15:57.291Z,102124.97
2022-11-24T09:21:09.847Z,102115.28
2022-11-24T09:26:20.737Z,102115.50
2022-11-24T09:31:29.328Z,102125.94
2022-11-24T09:36:32.471Z,102124.13
2022-11-24T09:41:59.185Z,102133.06
2022-11-24T09:47:23.007Z,102124.13
2022-11-24T09:52:59.476Z,102134.03
2022-11-24T09:58:34.225Z,102145.50
2022-11-24T10:03:43.705Z,102148.94
2022-11-24T10:09:03.784Z,102147.22
2022-11-24T10:14:27.140Z,102153.41
2022-11-24T10:19:51.431Z,102150.00
2022-11-24T10:25:22.117Z,102142.03
2022-11-24T10:30:24.275Z,102142.75
2022-11-24T10:36:03.672Z,102141.03
2022-11-24T10:41:10.590Z,102118.91
2022-11-24T10:46:17.056Z,102117.09
2022-11-24T10:51:24.880Z,102120.59
2022-11-24T10:56:26.898Z,102112.63
2022-11-24T11:01:33.479Z,102109.03
2022-11-24T11:06:38.287Z,102111.59
2022-11-24T11:11:40.387Z,102091.47
2022-11-24T11:16:48.635Z,102081.66
2022-11-24T11:22:03.892Z,102079.00
2022-11-24T11:27:16.673Z,102066.44
2022-11-24T11:37:51.319Z,102038.66
2022-11-24T11:43:10.461Z,102047.19
2022-11-24T11:48:21.369Z,102035.47
2022-11-24T11:53:45.951Z,102027.41
2022-11-24T11:59:04.893Z,102016.75
2022-11-24T12:04:23.683Z,102015.03
2022-11-24T12:09:34.795Z,102008.88
2022-11-24T12:15:22.003Z,102008.88
2022-11-24T12:20:48.930Z,102007.06
2022-11-24T12:26:05.742Z,102004.41
2022-11-24T12:31:14.513Z,101983.97
2022-11-24T12:36:16.498Z,101982.25
2022-11-24T12:46:56.869Z,101971.53
2022-11-24T12:52:05.673Z,101955.56
2022-11-24T12:57:15.392Z,101942.25
2022-11-24T13:02:51.504Z,101948.53
2022-11-24T13:08:00.588Z,101951.94
2022-11-24T13:13:04.156Z,101945.69
2022-11-24T13:18:45.418Z,101932.47
2022-11-24T13:23:57.950Z,101933.31
2022-11-24T13:29:23.905Z,101935.13
2022-11-24T13:34:39.496Z,101927.16
2022-11-24T13:40:03.504Z,101928.00
2022-11-24T13:45:25.971Z,101927.91
2022-11-24T13:50:49.936Z,101912.91
2022-11-24T13:56:13.097Z,101902.34
2022-11-24T14:01:31.105Z,101891.59
2022-11-24T14:06:43.986Z,101889.81
2022-11-24T14:12:00.188Z,101891.59
2022-11-24T14:17:28.776Z,101888.94
2022-11-24T14:22:41.457Z,101884.47
2022-11-24T14:27:43.624Z,101881.81
2022-11-24T14:32:58.972Z,101874.69
2022-11-24T14:38:06.119Z,101883.41
2022-11-24T14:43:35.021Z,101882.69
2022-11-24T14:48:47.115Z,101872.97
2022-11-24T14:53:55.434Z,101867.44
2022-11-24T14:58:58.277Z,101872.66
2022-11-24T15:04:32.461Z,101883.53
2022-11-24T15:09:58.592Z,101885.34
2022-11-24T15:15:05.149Z,101870.94
2022-11-24T15:20:27.934Z,101875.53
2022-11-24T15:25:34.211Z,101879.78
2022-11-24T15:30:37.286Z,101871.91
2022-11-24T15:35:39.454Z,101894.81
2022-11-24T15:40:44.546Z,101898.41
2022-11-24T15:45:46.598Z,101891.38
2022-11-24T15:50:49.259Z,101900.97
2022-11-24T15:55:52.374Z,101901.84
2022-11-24T16:00:54.519Z,101900.13
2022-11-24T16:05:57.773Z,101894.03
2022-11-24T16:10:59.717Z,101887.78
2022-11-24T16:16:02.011Z,101880.66
2022-11-24T16:21:04.160Z,101879.69
2022-11-24T16:26:07.161Z,101875.22
2022-11-24T16:31:09.147Z,101866.38
2022-11-24T16:36:11.214Z,101871.72
2022-11-24T16:41:14.755Z,101862.44
2022-11-24T16:46:24.793Z,101879.69
2022-11-24T16:51:32.972Z,101891.19
2022-11-24T16:56:36.478Z,101875.31
2022-11-24T17:01:40.475Z,101882.34
2022-11-24T17:06:42.957Z,101886.91
2022-11-24T17:11:45.619Z,101890.34
2022-11-24T17:16:47.652Z,101890.25
2022-11-24T17:21:49.709Z,101881.41
2022-11-24T17:26:51.922Z,101873.53
2022-11-24T17:31:53.992Z,101877.97
2022-11-24T17:36:56.022Z,101872.66
2022-11-24T17:41:58.016Z,101878.75
2022-11-24T17:47:01.112Z,101876.09
2022-11-24T17:52:03.158Z,101870.84
2022-11-24T17:57:05.179Z,101870.09
2022-11-24T18:02:09.050Z,101879.69
2022-11-24T18:07:11.238Z,101878.75
2022-11-24T18:12:13.422Z,101867.66
2022-11-24T18:17:15.519Z,101871.72
2022-11-24T18:22:21.013Z,101877.88
2022-11-24T18:27:29.293Z,101877.88
2022-11-24T18:32:32.714Z,101866.38
2022-11-24T18:37:37.025Z,101860.13
2022-11-24T18:42:39.033Z,101859.25
2022-11-24T18:47:41.089Z,101862.88
2022-11-24T18:52:43.573Z,101871.72
2022-11-24T18:57:45.604Z,101877.88
2022-11-24T19:02:51.742Z,101874.38
2022-11-24T19:07:53.977Z,101876.94
2022-11-24T19:12:56.377Z,101889.47
2022-11-24T19:17:58.371Z,101888.63
2022-11-24T19:23:00.528Z,101901.84
2022-11-24T19:28:02.755Z,101902.69
2022-11-24T19:33:07.599Z,101902.69
2022-11-24T19:38:14.726Z,101899.19
2022-11-24T19:43:16.974Z,101907.25
2022-11-24T19:48:19.074Z,101903.66
2022-11-24T19:53:20.974Z,101895.75
2022-11-24T19:58:23.124Z,101900.97
2022-11-24T20:03:25.145Z,101907.16
2022-11-24T20:08:34.336Z,101900.03
2022-11-24T20:13:37.727Z,101888.19
2022-11-24T20:18:43.970Z,101901.06
2022-11-24T20:23:52.318Z,101900.13
2022-11-24T20:28:56.616Z,101892.06
2022-11-24T20:34:00.438Z,101891.28
2022-11-24T20:39:06.480Z,101896.50
2022-11-24T20:44:11.524Z,101888.00
2022-11-24T20:49:16.772Z,101899.19
2022-11-24T20:54:18.903Z,101889.38
2022-11-24T20:59:22.726Z,101883.97
2022-11-24T21:04:26.263Z,101880.75
2022-11-24T21:09:28.409Z,101879.78
2022-11-24T21:14:35.125Z,101885.13
2022-11-24T21:19:37.479Z,101867.75
2022-11-24T21:24:39.392Z,101884.91
2022-11-24T21:29:41.448Z,101879.59
2022-11-24T21:34:43.524Z,101880.66
2022-11-24T21:39:45.890Z,101883.31
2022-11-24T21:44:47.933Z,101870.84
2022-11-24T21:49:49.948Z,101865.44
2022-11-24T21:54:51.974Z,101862.78
2022-11-24T21:59:53.965Z,101866.38
2022-11-24T22:04:56.043Z,101866.59
2022-11-24T22:09:58.163Z,101867.44
2022-11-24T22:15:00.253Z,101867.25
2022-11-24T22:20:02.450Z,101859.25
2022-11-24T22:25:04.918Z,101851.28
2022-11-24T22:30:07.599Z,101857.66
2022-11-24T22:35:10.184Z,101854.03
2022-11-24T22:40:12.375Z,101850.44
2022-11-24T22:45:14.416Z,101847.75
2022-11-24T22:50:16.405Z,101856.59
2022-11-24T22:55:18.428Z,101855.84
2022-11-24T23:00:20.701Z,101852.31
2022-11-24T23:05:22.729Z,101859.34
2022-11-24T23:10:24.730Z,101860.22
2022-11-24T23:15:26.777Z,101840.72
2022-11-24T23:20:28.754Z,101839.03
2022-11-24T23:25:30.747Z,101832.00
2022-11-24T23:30:32.723Z,101829.34
2022-11-24T23:35:34.702Z,101821.47
2022-11-24T23:40:36.746Z,101821.47
2022-11-24T23:45:38.772Z,101815.19
2022-11-24T23:50:40.791Z,101810.72
2022-11-24T23:55:42.749Z,101809.03
